Forseti — V2PV4 — position and weather

sailwx.info

Track history (hours):
 
Tides and Currents Weather Stations Pressure Air Temp Water Temp Dewpoint Dewpoint Depression Visibility Wind Speed Wind Dir Waves Ship Positions

Forseti

Last reported at 2016-Feb-10 18:33 UTC. Time now 2016-Feb-12 07:49 UTC.
Position N 53°42' W 000°35'.

Length 85 m; draft 5.1 m.

Type: Cargo ship. MMSI: 304010297.

Date/timePositionNaut miles runAvg speedWind from/ knotsBaromVisibWave heightAir tempDewpointWater temp
2016-Feb-10 18:33N 53°42' W 000°35'8 8.6
2016-Feb-10 17:33N 53°43' W 000°20'8 8.1
2016-Feb-10 16:33N 53°38' W 000°09'9 9.1
2016-Feb-10 15:33N 53°35' E 000°05'9 8.8
2016-Feb-10 14:33N 53°31' E 000°19'10 9.6
2016-Feb-10 13:32N 53°29' E 000°34'1210.0
2016-Feb-10 12:19N 53°26' E 000°54'148 7.9
2016-Feb-09 17:34N 53°34' E 005°03'8 8.0
2016-Feb-09 16:33N 53°37' E 005°16'9 9.2
2016-Feb-09 15:33N 53°40' E 005°30'9 9.2
2016-Feb-09 14:33N 53°43' E 005°44'9 9.0
2016-Feb-09 13:33N 53°46' E 005°59'9 8.5
2016-Feb-09 12:33N 53°49' E 006°13'8 7.7
2016-Feb-09 11:33N 53°51' E 006°25'7 6.8
2016-Feb-09 10:33N 53°52' E 006°36'6 6.0
2016-Feb-09 09:33N 53°54' E 006°46'5 4.9
2016-Feb-09 08:33N 53°55' E 006°54'4 4.3
2016-Feb-09 07:33N 53°56' E 007°01'4 4.4
2016-Feb-09 06:33N 53°57' E 007°09'5 4.6
2016-Feb-09 05:33N 53°58' E 007°16'5 5.0
2016-Feb-09 04:33N 53°60' E 007°24'5 5.3
2016-Feb-09 03:33N 54°01' E 007°33'6 5.7
2016-Feb-09 02:33N 54°02' E 007°43'6 6.2
2016-Feb-09 01:33N 54°02' E 007°53'6 6.0
2016-Feb-09 00:33N 54°01' E 008°03'6 6.1
2016-Feb-08 23:33N 54°01' E 008°13'7 6.5
2016-Feb-08 22:33N 53°60' E 008°24'7 7.0
2016-Feb-08 21:33N 53°58' E 008°36'7 6.9
2016-Feb-08 20:33N 53°53' E 008°43'9 9.4
2016-Feb-08 19:33N 53°51' E 008°59'6 4.7
2016-Feb-08 18:16N 53°52' E 009°09'0 0.0
2016-Feb-08 17:31N 53°52' E 009°09'0 0.0
2016-Feb-08 16:31N 53°52' E 009°09'0 0.0
2016-Feb-08 15:31N 53°53' E 009°09'0 0.1
2016-Feb-08 14:25N 53°53' E 009°09'0 0.0
2016-Feb-08 13:31N 53°53' E 009°09'0 0.0
2016-Feb-08 11:31N 53°53' E 009°09'0 0.0
2016-Feb-08 10:28N 53°53' E 009°09'0 0.0
2016-Feb-08 09:22N 53°53' E 009°09'0 0.1
2016-Feb-08 07:19N 53°53' E 009°09'0 0.0
2016-Feb-08 06:31N 53°53' E 009°09'0 0.0
2016-Feb-08 05:31N 53°53' E 009°09'0 0.0
2016-Feb-08 04:31N 53°53' E 009°09'0 0.0
2016-Feb-08 03:31N 53°53' E 009°09'0 0.0
2016-Feb-08 02:31N 53°53' E 009°09'0 0.1
2016-Feb-08 01:28N 53°53' E 009°09'0 0.1
2016-Feb-08 00:31N 53°53' E 009°09'0 0.0
2016-Feb-07 23:22N 53°53' E 009°09'0 0.0
2016-Feb-07 22:25N 53°53' E 009°09'0 0.0
2016-Feb-07 21:19N 53°52' E 009°09'0 0.1
2016-Feb-07 19:19N 53°53' E 009°09'0 0.0
2016-Feb-07 17:31N 53°53' E 009°09'0 0.1
2016-Feb-07 16:31N 53°53' E 009°09'1 1.3
2016-Feb-07 15:33N 53°54' E 009°09'6 6.2
2016-Feb-07 14:33N 53°58' E 009°16'24 7.5
2016-Feb-07 11:22N 54°17' E 009°40'2 2.8
2016-Feb-07 10:33N 54°19' E 009°43'5 4.7
2016-Feb-07 09:33N 54°22' E 009°50'8 8.1
2016-Feb-07 08:33N 54°22' E 010°03'3 3.0
2016-Feb-07 07:33N 54°22' E 010°08'1 1.2
2016-Feb-07 06:33N 54°22' E 010°10'6 6.4
2016-Feb-07 05:33N 54°28' E 010°15'8 8.0
2016-Feb-07 04:33N 54°32' E 010°27'8 8.2
2016-Feb-07 03:33N 54°35' E 010°41'8 8.3
2016-Feb-07 02:33N 54°36' E 010°55'8 8.5
2016-Feb-07 01:33N 54°36' E 011°09'9 9.2
2016-Feb-07 00:33N 54°33' E 011°24'9 8.9
2016-Feb-06 23:33N 54°29' E 011°38'9 9.0
2016-Feb-06 22:33N 54°27' E 011°53'9 8.7
2016-Feb-06 21:33N 54°27' E 012°08'8 8.1
2016-Feb-06 20:32N 54°35' E 012°14'8 8.2
2016-Feb-06 19:32N 54°41' E 012°24'9 8.8
2016-Feb-06 18:33N 54°46' E 012°36'45 9.1
2016-Feb-06 13:33N 55°02' E 013°50'9 9.1
2016-Feb-06 12:33N 55°05' E 014°05'9 8.7
2016-Feb-06 11:33N 55°12' E 014°14'9 8.9
2016-Feb-06 10:33N 55°19' E 014°24'9 8.8
2016-Feb-06 09:33N 55°25' E 014°35'9 8.7
2016-Feb-06 08:33N 55°30' E 014°47'9 8.9
2016-Feb-06 07:33N 55°35' E 015°01'9 9.2
2016-Feb-06 06:33N 55°39' E 015°15'  
2016-Jan-31 22:28N 55°37' E 015°25'910.3
2016-Jan-31 21:33N 55°33' E 015°11'1110.6
2016-Jan-31 20:33N 55°28' E 014°54'1010.3
2016-Jan-31 19:33N 55°22' E 014°39'1010.0
2016-Jan-31 18:33N 55°15' E 014°28'  
Track history (hours):
 
Tides and Currents Weather Stations Pressure Air Temp Water Temp Dewpoint Dewpoint Depression Visibility Wind Speed Wind Dir Waves Ship Positions

Forseti

Last reported at 2016-Feb-10 18:33 UTC. Time now 2016-Feb-12 07:49 UTC.
Position N 53°42' W 000°35'.

Length 85 m; draft 5.1 m.

Type: Cargo ship. MMSI: 304010297.

Date/timePositionNaut miles runAvg speedWind from/ knotsBaromVisibWave heightAir tempDewpointWater temp
2016-Feb-10 18:33N 53°42' W 000°35'8 8.6
2016-Feb-10 17:33N 53°43' W 000°20'8 8.1
2016-Feb-10 16:33N 53°38' W 000°09'9 9.1
2016-Feb-10 15:33N 53°35' E 000°05'9 8.8
2016-Feb-10 14:33N 53°31' E 000°19'10 9.6
2016-Feb-10 13:32N 53°29' E 000°34'1210.0
2016-Feb-10 12:19N 53°26' E 000°54'148 7.9
2016-Feb-09 17:34N 53°34' E 005°03'8 8.0
2016-Feb-09 16:33N 53°37' E 005°16'9 9.2
2016-Feb-09 15:33N 53°40' E 005°30'9 9.2
2016-Feb-09 14:33N 53°43' E 005°44'9 9.0
2016-Feb-09 13:33N 53°46' E 005°59'9 8.5
2016-Feb-09 12:33N 53°49' E 006°13'8 7.7
2016-Feb-09 11:33N 53°51' E 006°25'7 6.8
2016-Feb-09 10:33N 53°52' E 006°36'6 6.0
2016-Feb-09 09:33N 53°54' E 006°46'5 4.9
2016-Feb-09 08:33N 53°55' E 006°54'4 4.3
2016-Feb-09 07:33N 53°56' E 007°01'4 4.4
2016-Feb-09 06:33N 53°57' E 007°09'5 4.6
2016-Feb-09 05:33N 53°58' E 007°16'5 5.0
2016-Feb-09 04:33N 53°60' E 007°24'5 5.3
2016-Feb-09 03:33N 54°01' E 007°33'6 5.7
2016-Feb-09 02:33N 54°02' E 007°43'6 6.2
2016-Feb-09 01:33N 54°02' E 007°53'6 6.0
2016-Feb-09 00:33N 54°01' E 008°03'6 6.1
2016-Feb-08 23:33N 54°01' E 008°13'7 6.5
2016-Feb-08 22:33N 53°60' E 008°24'7 7.0
2016-Feb-08 21:33N 53°58' E 008°36'7 6.9
2016-Feb-08 20:33N 53°53' E 008°43'9 9.4
2016-Feb-08 19:33N 53°51' E 008°59'6 4.7
2016-Feb-08 18:16N 53°52' E 009°09'0 0.0
2016-Feb-08 17:31N 53°52' E 009°09'0 0.0
2016-Feb-08 16:31N 53°52' E 009°09'0 0.0
2016-Feb-08 15:31N 53°53' E 009°09'0 0.1
2016-Feb-08 14:25N 53°53' E 009°09'0 0.0
2016-Feb-08 13:31N 53°53' E 009°09'0 0.0
2016-Feb-08 11:31N 53°53' E 009°09'0 0.0
2016-Feb-08 10:28N 53°53' E 009°09'0 0.0
2016-Feb-08 09:22N 53°53' E 009°09'0 0.1
2016-Feb-08 07:19N 53°53' E 009°09'0 0.0
2016-Feb-08 06:31N 53°53' E 009°09'0 0.0
2016-Feb-08 05:31N 53°53' E 009°09'0 0.0
2016-Feb-08 04:31N 53°53' E 009°09'0 0.0
2016-Feb-08 03:31N 53°53' E 009°09'0 0.0
2016-Feb-08 02:31N 53°53' E 009°09'0 0.1
2016-Feb-08 01:28N 53°53' E 009°09'0 0.1
2016-Feb-08 00:31N 53°53' E 009°09'0 0.0
2016-Feb-07 23:22N 53°53' E 009°09'0 0.0
2016-Feb-07 22:25N 53°53' E 009°09'0 0.0
2016-Feb-07 21:19N 53°52' E 009°09'0 0.1
2016-Feb-07 19:19N 53°53' E 009°09'0 0.0
2016-Feb-07 17:31N 53°53' E 009°09'0 0.1
2016-Feb-07 16:31N 53°53' E 009°09'1 1.3
2016-Feb-07 15:33N 53°54' E 009°09'6 6.2
2016-Feb-07 14:33N 53°58' E 009°16'24 7.5
2016-Feb-07 11:22N 54°17' E 009°40'2 2.8
2016-Feb-07 10:33N 54°19' E 009°43'5 4.7
2016-Feb-07 09:33N 54°22' E 009°50'8 8.1
2016-Feb-07 08:33N 54°22' E 010°03'3 3.0
2016-Feb-07 07:33N 54°22' E 010°08'1 1.2
2016-Feb-07 06:33N 54°22' E 010°10'6 6.4
2016-Feb-07 05:33N 54°28' E 010°15'8 8.0
2016-Feb-07 04:33N 54°32' E 010°27'8 8.2
2016-Feb-07 03:33N 54°35' E 010°41'8 8.3
2016-Feb-07 02:33N 54°36' E 010°55'8 8.5
2016-Feb-07 01:33N 54°36' E 011°09'9 9.2
2016-Feb-07 00:33N 54°33' E 011°24'9 8.9
2016-Feb-06 23:33N 54°29' E 011°38'9 9.0
2016-Feb-06 22:33N 54°27' E 011°53'9 8.7
2016-Feb-06 21:33N 54°27' E 012°08'8 8.1
2016-Feb-06 20:32N 54°35' E 012°14'8 8.2
2016-Feb-06 19:32N 54°41' E 012°24'9 8.8
2016-Feb-06 18:33N 54°46' E 012°36'45 9.1
2016-Feb-06 13:33N 55°02' E 013°50'9 9.1
2016-Feb-06 12:33N 55°05' E 014°05'9 8.7
2016-Feb-06 11:33N 55°12' E 014°14'9 8.9
2016-Feb-06 10:33N 55°19' E 014°24'9 8.8
2016-Feb-06 09:33N 55°25' E 014°35'9 8.7
2016-Feb-06 08:33N 55°30' E 014°47'9 8.9
2016-Feb-06 07:33N 55°35' E 015°01'9 9.2
2016-Feb-06 06:33N 55°39' E 015°15'  
2016-Jan-31 22:28N 55°37' E 015°25'910.3
2016-Jan-31 21:33N 55°33' E 015°11'1110.6
2016-Jan-31 20:33N 55°28' E 014°54'1010.3
2016-Jan-31 19:33N 55°22' E 014°39'1010.0
2016-Jan-31 18:33N 55°15' E 014°28'  

Dump ship's entire track history